Time;durP1;ratioP1;P1;durP2;ratioP2;P2;SDS_P1;SDS_P2;PMS_P1;PMS_P2;Temp;Humidity;BMP_temperature;BMP_pressure;BME280_temperature;BME280_humidity;BME280_pressure;Samples;Min_cycle;Max_cycle;Signal;HPM_P1;HPM_P2
2021/05/12 00:00:47;;;;;;;3.00;2.00;;;;;;;;;;4995269;28;20225;-85
2021/05/12 00:03:52;;;;;;;2.23;2.00;;;;;;;;;;4994073;28;20189;-84
2021/05/12 00:06:56;;;;;;;2.63;2.27;;;;;;;;;;4993700;28;20185;-84
2021/05/12 00:10:03;;;;;;;3.60;1.90;;;;;;;;;;4972796;28;20232;-85
2021/05/12 00:13:07;;;;;;;2.10;1.63;;;;;;;;;;4963820;28;20178;-84
2021/05/12 00:16:12;;;;;;;3.53;1.93;;;;;;;;;;4974255;28;20210;-84
2021/05/12 00:19:16;;;;;;;2.83;2.10;;;;;;;;;;4974681;28;20668;-84
2021/05/12 00:22:37;;;;;;;1.93;1.77;;;;;;;;;;4985029;28;20205;-84
2021/05/12 00:25:42;;;;;;;3.53;1.80;;;;;;;;;;4963614;28;20187;-84
2021/05/12 00:28:46;;;;;;;1.90;1.70;;;;;;;;;;4963441;28;20173;-84
2021/05/12 00:31:50;;;;;;;2.07;1.87;;;;;;;;;;4978142;28;20197;-85
2021/05/12 00:34:54;;;;;;;2.30;1.40;;;;;;;;;;4973872;28;20183;-84
2021/05/12 00:37:59;;;;;;;2.20;1.87;;;;;;;;;;4962880;28;20210;-84
2021/05/12 00:41:04;;;;;;;2.77;1.50;;;;;;;;;;4974437;28;20213;-84
2021/05/12 00:44:19;;;;;;;3.37;1.73;;;;;;;;;;4973813;28;20202;-84
2021/05/12 00:47:28;;;;;;;2.63;2.00;;;;;;;;;;4962885;28;20182;-84
2021/05/12 00:50:32;;;;;;;1.63;1.40;;;;;;;;;;4995965;28;20230;-84
2021/05/12 00:53:36;;;;;;;1.60;1.40;;;;;;;;;;4963170;28;20186;-84
2021/05/12 00:56:42;;;;;;;1.70;1.50;;;;;;;;;;4985210;28;20209;-84
2021/05/12 00:59:49;;;;;;;1.80;1.60;;;;;;;;;;4984791;28;20233;-84
2021/05/12 01:02:53;;;;;;;3.30;1.50;;;;;;;;;;4973259;28;20186;-84
2021/05/12 01:05:59;;;;;;;3.43;1.63;;;;;;;;;;4973595;28;20178;-84
2021/05/12 01:09:05;;;;;;;2.03;1.70;;;;;;;;;;4973878;28;20182;-83
2021/05/12 01:12:09;;;;;;;2.43;1.67;;;;;;;;;;4973738;28;20182;-84
2021/05/12 01:15:14;;;;;;;1.70;1.60;;;;;;;;;;4973251;28;20178;-84
2021/05/12 01:18:21;;;;;;;2.47;1.70;;;;;;;;;;4970873;28;20225;-84
2021/05/12 01:21:25;;;;;;;2.10;1.73;;;;;;;;;;4992286;28;20225;-84
2021/05/12 01:24:30;;;;;;;1.87;1.50;;;;;;;;;;4992443;28;20182;-84
2021/05/12 01:27:34;;;;;;;1.93;1.70;;;;;;;;;;4981208;28;20170;-83
2021/05/12 01:30:39;;;;;;;1.70;1.60;;;;;;;;;;4984232;28;20213;-84
2021/05/12 01:33:44;;;;;;;1.73;1.53;;;;;;;;;;4961570;28;20178;-84
2021/05/12 01:36:50;;;;;;;2.47;2.27;;;;;;;;;;4972381;28;20685;-84
2021/05/12 01:39:55;;;;;;;2.20;1.70;;;;;;;;;;4972288;28;20222;-84
2021/05/12 01:42:59;;;;;;;3.00;1.70;;;;;;;;;;4972359;28;20198;-84
2021/05/12 01:46:05;;;;;;;1.77;1.67;;;;;;;;;;5000269;28;20205;-84
2021/05/12 01:49:10;;;;;;;1.67;1.57;;;;;;;;;;4980602;28;20177;-86
2021/05/12 01:52:14;;;;;;;2.93;1.50;;;;;;;;;;4961591;28;20186;-86
2021/05/12 01:55:18;;;;;;;1.80;1.43;;;;;;;;;;4991904;28;20648;-85
2021/05/12 01:58:23;;;;;;;1.43;1.33;;;;;;;;;;5002794;28;20213;-85
2021/05/12 02:01:34;;;;;;;3.10;1.50;;;;;;;;;;4993630;28;20206;-85
2021/05/12 02:04:39;;;;;;;1.70;1.23;;;;;;;;;;4999121;28;20206;-85
2021/05/12 02:07:43;;;;;;;1.63;1.10;;;;;;;;;;4982983;28;20215;-85
2021/05/12 02:10:50;;;;;;;1.20;1.10;;;;;;;;;;4960854;28;20218;-84
2021/05/12 02:13:54;;;;;;;1.20;1.10;;;;;;;;;;4994854;28;20178;-85
2021/05/12 02:16:59;;;;;;;0.90;0.90;;;;;;;;;;4971908;28;20202;-85
2021/05/12 02:20:06;;;;;;;2.20;1.23;;;;;;;;;;4982695;28;20221;-85
2021/05/12 02:23:13;;;;;;;1.10;1.00;;;;;;;;;;4971752;28;20584;-85
2021/05/12 02:26:17;;;;;;;1.17;0.90;;;;;;;;;;4971371;28;20197;-85
2021/05/12 02:29:21;;;;;;;1.47;1.17;;;;;;;;;;4971688;28;20213;-85
2021/05/12 02:32:25;;;;;;;2.07;1.40;;;;;;;;;;4982947;28;20178;-85
2021/05/12 02:35:30;;;;;;;3.27;1.00;;;;;;;;;;4971923;28;20182;-85
2021/05/12 02:38:35;;;;;;;1.00;0.90;;;;;;;;;;4990213;28;20221;-85
2021/05/12 02:41:39;;;;;;;1.27;1.03;;;;;;;;;;4971500;28;20543;-85
2021/05/12 02:44:43;;;;;;;1.40;0.80;;;;;;;;;;4971670;28;20216;-85
2021/05/12 02:47:58;;;;;;;1.00;0.90;;;;;;;;;;4983019;28;20506;-85
2021/05/12 02:51:02;;;;;;;3.73;1.10;;;;;;;;;;4982679;28;20712;-85
2021/05/12 02:54:07;;;;;;;1.37;1.27;;;;;;;;;;4971762;28;20633;-86
2021/05/12 02:57:11;;;;;;;1.10;1.00;;;;;;;;;;4971985;28;20680;-85
2021/05/12 03:00:18;;;;;;;1.30;1.20;;;;;;;;;;4978670;23;20245;-83
2021/05/12 03:03:22;;;;;;;1.30;1.20;;;;;;;;;;4964736;28;20195;-85
2021/05/12 03:06:27;;;;;;;1.23;1.10;;;;;;;;;;4964064;28;20546;-85
2021/05/12 03:09:31;;;;;;;1.37;1.20;;;;;;;;;;4953345;28;20174;-86
2021/05/12 03:12:35;;;;;;;1.10;1.00;;;;;;;;;;4950873;28;20206;-86
2021/05/12 03:15:39;;;;;;;1.93;1.30;;;;;;;;;;4944614;29;20188;-86
2021/05/12 03:18:44;;;;;;;1.10;1.00;;;;;;;;;;4933255;28;20219;-85
2021/05/12 03:21:48;;;;;;;1.20;1.10;;;;;;;;;;4926707;29;20227;-86
2021/05/12 03:24:52;;;;;;;1.10;1.00;;;;;;;;;;4942653;28;20553;-85
2021/05/12 03:27:57;;;;;;;1.40;1.20;;;;;;;;;;4979033;28;20182;-85
2021/05/12 03:31:01;;;;;;;1.10;1.00;;;;;;;;;;4956595;28;20223;-86
2021/05/12 03:34:06;;;;;;;1.17;1.07;;;;;;;;;;4956126;28;20183;-86
2021/05/12 03:37:10;;;;;;;2.50;1.10;;;;;;;;;;4945285;28;20549;-86
2021/05/12 03:40:16;;;;;;;1.13;1.03;;;;;;;;;;4966953;28;20226;-86
2021/05/12 03:43:20;;;;;;;1.17;1.07;;;;;;;;;;4967288;28;20519;-86
2021/05/12 03:46:24;;;;;;;0.87;0.87;;;;;;;;;;4978926;28;20383;-86
2021/05/12 03:49:29;;;;;;;2.20;1.27;;;;;;;;;;4945581;28;20171;-86
2021/05/12 03:52:33;;;;;;;2.20;1.00;;;;;;;;;;4955797;28;20191;-86
2021/05/12 03:55:38;;;;;;;1.67;1.20;;;;;;;;;;4944937;28;20195;-86
2021/05/12 03:58:42;;;;;;;1.47;1.00;;;;;;;;;;4978711;28;20214;-86
2021/05/12 04:01:47;;;;;;;1.37;1.10;;;;;;;;;;4966819;28;20230;-85
2021/05/12 04:04:51;;;;;;;1.17;1.07;;;;;;;;;;4955920;28;20183;-86
2021/05/12 04:07:56;;;;;;;1.20;1.10;;;;;;;;;;4944661;28;20642;-85
2021/05/12 04:11:00;;;;;;;1.17;0.97;;;;;;;;;;4965861;28;20210;-88
2021/05/12 04:14:04;;;;;;;1.30;1.10;;;;;;;;;;4943986;28;20638;-87
2021/05/12 04:17:08;;;;;;;2.47;0.90;;;;;;;;;;4946592;29;20187;-87
2021/05/12 04:20:16;;;;;;;1.00;0.90;;;;;;;;;;4957289;29;20203;-87
2021/05/12 04:23:20;;;;;;;1.47;1.07;;;;;;;;;;4957740;29;20188;-87
2021/05/12 04:26:24;;;;;;;2.57;1.00;;;;;;;;;;4960874;28;20198;-87
2021/05/12 04:29:28;;;;;;;1.20;1.10;;;;;;;;;;4965844;28;20183;-87
2021/05/12 04:32:32;;;;;;;1.17;0.93;;;;;;;;;;4925684;28;20183;-87
2021/05/12 04:35:37;;;;;;;1.00;0.80;;;;;;;;;;4954173;28;20653;-87
2021/05/12 04:38:41;;;;;;;1.10;1.00;;;;;;;;;;4965803;28;20207;-88
2021/05/12 04:41:45;;;;;;;1.50;1.03;;;;;;;;;;4965606;28;20219;-87
2021/05/12 04:44:49;;;;;;;0.93;0.83;;;;;;;;;;4943880;28;20191;-87
2021/05/12 04:47:57;;;;;;;2.03;1.60;;;;;;;;;;4965906;28;20175;-87
2021/05/12 04:51:01;;;;;;;1.93;1.30;;;;;;;;;;4954035;28;20231;-87
2021/05/12 04:54:06;;;;;;;1.00;0.90;;;;;;;;;;4953820;28;20550;-87
2021/05/12 04:57:10;;;;;;;10.30;8.13;;;;;;;;;;4962804;28;20182;-87
2021/05/12 05:00:17;;;;;;;2.70;2.50;;;;;;;;;;4954092;28;21007;-85
2021/05/12 05:03:22;;;;;;;2.63;2.43;;;;;;;;;;4939795;28;20657;-87
2021/05/12 05:06:27;;;;;;;2.13;1.93;;;;;;;;;;4938940;28;20191;-88
2021/05/12 05:09:31;;;;;;;3.00;2.70;;;;;;;;;;4942518;28;20190;-87
2021/05/12 05:12:35;;;;;;;1.90;1.80;;;;;;;;;;4942749;28;20199;-87
2021/05/12 05:15:40;;;;;;;1.63;1.53;;;;;;;;;;4953824;28;20191;-86
2021/05/12 05:18:45;;;;;;;1.90;1.80;;;;;;;;;;4953201;28;20214;-87
2021/05/12 05:21:50;;;;;;;1.67;1.57;;;;;;;;;;4954892;28;20223;-87
2021/05/12 05:24:55;;;;;;;2.20;2.00;;;;;;;;;;4949107;28;20195;-87
2021/05/12 05:28:00;;;;;;;2.37;1.87;;;;;;;;;;4924960;29;20179;-87
2021/05/12 05:31:04;;;;;;;2.50;2.30;;;;;;;;;;4944437;29;20227;-85
2021/05/12 05:34:27;;;;;;;2.10;1.70;;;;;;;;;;4946693;29;20184;-87
2021/05/12 05:37:49;;;;;;;4.13;2.07;;;;;;;;;;4957171;29;20646;-87
2021/05/12 05:41:12;;;;;;;2.30;1.90;;;;;;;;;;4946176;29;20223;-87
2021/05/12 05:44:35;;;;;;;2.67;2.20;;;;;;;;;;4948610;29;20179;-87
2021/05/12 05:47:58;;;;;;;4.73;3.80;;;;;;;;;;4957658;29;20176;-86
2021/05/12 05:51:22;;;;;;;6.17;3.03;;;;;;;;;;4946222;29;20219;-86
2021/05/12 05:54:45;;;;;;;4.03;3.57;;;;;;;;;;4953970;29;20547;-86
2021/05/12 05:58:07;;;;;;;2.50;2.20;;;;;;;;;;4954841;29;20536;-86
2021/05/12 06:01:30;;;;;;;2.40;2.10;;;;;;;;;;4957911;28;20239;-87
2021/05/12 06:04:34;;;;;;;4.33;2.53;;;;;;;;;;4969149;28;20194;-86
2021/05/12 06:07:57;;;;;;;2.80;2.07;;;;;;;;;;4967673;28;20183;-86
2021/05/12 06:11:21;;;;;;;4.53;2.60;;;;;;;;;;4956592;28;20218;-86
2021/05/12 06:14:43;;;;;;;4.00;1.80;;;;;;;;;;4973529;28;20183;-86
2021/05/12 06:18:06;;;;;;;2.40;2.20;;;;;;;;;;4973157;28;20210;-86
2021/05/12 06:21:29;;;;;;;2.73;2.10;;;;;;;;;;4967761;28;20215;-87
2021/05/12 06:24:51;;;;;;;3.97;1.90;;;;;;;;;;4945863;29;20515;-86
2021/05/12 06:28:13;;;;;;;2.47;1.80;;;;;;;;;;4956691;29;20631;-86
2021/05/12 06:31:36;;;;;;;2.13;1.93;;;;;;;;;;4945407;29;20330;-86
2021/05/12 06:34:58;;;;;;;2.43;2.13;;;;;;;;;;4945714;29;20642;-86
2021/05/12 06:38:21;;;;;;;1.80;1.70;;;;;;;;;;4956138;29;20212;-87
2021/05/12 06:41:34;;;;;;;2.03;1.70;;;;;;;;;;4967105;28;20219;-86
2021/05/12 06:44:39;;;;;;;1.67;1.50;;;;;;;;;;4955819;29;20175;-86
2021/05/12 06:47:43;;;;;;;4.47;1.67;;;;;;;;;;4956239;29;20175;-87
2021/05/12 06:50:48;;;;;;;2.60;2.00;;;;;;;;;;4956045;29;20562;-86
2021/05/12 06:53:51;;;;;;;2.03;1.70;;;;;;;;;;4955926;28;20184;-86
2021/05/12 06:56:56;;;;;;;1.67;1.57;;;;;;;;;;4948790;29;20774;-86
2021/05/12 07:00:00;;;;;;;2.33;1.90;;;;;;;;;;4959860;29;20646;-86
2021/05/12 07:03:04;;;;;;;3.50;1.40;;;;;;;;;;4959807;29;20179;-86
2021/05/12 07:06:09;;;;;;;2.43;1.70;;;;;;;;;;4959879;29;20183;-86
2021/05/12 07:09:13;;;;;;;2.23;2.00;;;;;;;;;;4937984;29;20179;-86
2021/05/12 07:12:18;;;;;;;2.27;2.07;;;;;;;;;;4948560;29;20219;-86
2021/05/12 07:15:22;;;;;;;3.60;1.77;;;;;;;;;;4948345;29;20273;-87
2021/05/12 07:18:26;;;;;;;2.87;1.83;;;;;;;;;;4950266;28;20248;-87
2021/05/12 07:21:30;;;;;;;2.33;2.13;;;;;;;;;;4956440;28;20569;-86
2021/05/12 07:24:34;;;;;;;1.40;1.30;;;;;;;;;;4956975;28;20202;-87
2021/05/12 07:27:39;;;;;;;1.70;1.60;;;;;;;;;;4945229;28;20198;-86
2021/05/12 07:30:44;;;;;;;1.60;1.50;;;;;;;;;;4945042;28;20211;-86
2021/05/12 07:33:48;;;;;;;2.20;1.83;;;;;;;;;;4945226;28;20199;-86
2021/05/12 07:36:52;;;;;;;1.63;1.53;;;;;;;;;;4944755;28;20198;-87
2021/05/12 07:39:57;;;;;;;3.23;2.57;;;;;;;;;;4966790;28;20222;-87
2021/05/12 07:43:04;;;;;;;2.20;2.00;;;;;;;;;;4955842;28;20207;-87
2021/05/12 07:46:08;;;;;;;2.23;2.00;;;;;;;;;;4944992;28;20187;-86
2021/05/12 07:49:12;;;;;;;2.53;2.10;;;;;;;;;;4944782;28;20179;-86
2021/05/12 07:52:16;;;;;;;2.23;2.03;;;;;;;;;;4955497;28;20218;-87
2021/05/12 07:55:20;;;;;;;1.87;1.77;;;;;;;;;;4966349;28;20198;-87
2021/05/12 07:58:25;;;;;;;3.63;2.13;;;;;;;;;;4955208;28;20199;-86
2021/05/12 08:01:36;;;;;;;2.20;1.50;;;;;;;;;;4955818;28;20230;-86
2021/05/12 08:04:41;;;;;;;1.13;1.00;;;;;;;;;;4944627;28;20199;-87
2021/05/12 08:07:45;;;;;;;1.47;1.37;;;;;;;;;;4966375;28;20186;-87
2021/05/12 08:10:50;;;;;;;2.00;1.80;;;;;;;;;;4943828;28;20210;-86
2021/05/12 08:13:54;;;;;;;1.50;1.40;;;;;;;;;;4944019;28;20199;-87
2021/05/12 08:16:58;;;;;;;2.23;2.03;;;;;;;;;;4955323;28;20198;-87
2021/05/12 08:20:04;;;;;;;1.90;1.70;;;;;;;;;;4965754;28;20551;-86
2021/05/12 08:23:08;;;;;;;2.60;1.87;;;;;;;;;;4955446;28;20179;-86
2021/05/12 08:26:12;;;;;;;3.40;2.23;;;;;;;;;;4965469;28;20175;-87
2021/05/12 08:29:17;;;;;;;2.17;1.97;;;;;;;;;;4977238;28;20175;-86
2021/05/12 08:32:22;;;;;;;2.13;1.93;;;;;;;;;;4944185;28;20179;-87
2021/05/12 08:35:26;;;;;;;1.97;1.77;;;;;;;;;;4977007;28;20187;-87
2021/05/12 08:38:31;;;;;;;1.97;1.83;;;;;;;;;;4965774;28;20626;-87
2021/05/12 08:41:36;;;;;;;2.50;2.00;;;;;;;;;;4965661;28;20226;-86
2021/05/12 08:44:40;;;;;;;3.57;2.63;;;;;;;;;;4976717;28;20642;-87
2021/05/12 08:47:54;;;;;;;3.03;2.50;;;;;;;;;;4965662;28;20183;-87
2021/05/12 08:50:58;;;;;;;3.33;2.30;;;;;;;;;;4965079;28;20559;-87
2021/05/12 08:54:02;;;;;;;2.57;2.37;;;;;;;;;;4943153;28;20186;-87
2021/05/12 08:57:07;;;;;;;2.73;2.53;;;;;;;;;;4953838;28;20186;-87
2021/05/12 09:00:11;;;;;;;2.90;2.60;;;;;;;;;;4975582;28;20218;-87
2021/05/12 09:03:16;;;;;;;2.80;2.60;;;;;;;;;;5024382;23;20236;-84
2021/05/12 09:06:22;;;;;;;3.13;2.83;;;;;;;;;;4981868;28;20193;-88
2021/05/12 09:09:27;;;;;;;2.73;2.53;;;;;;;;;;4982462;28;20186;-85
2021/05/12 09:12:53;;;;;;;3.30;2.90;;;;;;;;;;4973138;28;20217;-85
2021/05/12 09:16:22;;;;;;;3.37;3.07;;;;;;;;;;4973754;28;20183;-84
2021/05/12 09:19:29;;;;;;;4.17;2.83;;;;;;;;;;4972881;28;20209;-84
2021/05/12 09:22:34;;;;;;;3.30;3.00;;;;;;;;;;4990817;28;20229;-84
2021/05/12 09:25:40;;;;;;;5.37;3.43;;;;;;;;;;4992869;28;20182;-84
2021/05/12 09:28:44;;;;;;;3.83;3.20;;;;;;;;;;4982157;28;20185;-85
2021/05/12 09:31:49;;;;;;;3.87;3.57;;;;;;;;;;4993032;28;20185;-85
2021/05/12 09:34:56;;;;;;;4.20;3.90;;;;;;;;;;4992679;28;20190;-85
2021/05/12 09:38:00;;;;;;;5.17;4.67;;;;;;;;;;4992356;28;20256;-85
2021/05/12 09:41:10;;;;;;;5.10;4.60;;;;;;;;;;5002534;28;20221;-85
2021/05/12 09:44:27;;;;;;;6.00;5.40;;;;;;;;;;5003281;28;20557;-85
2021/05/12 09:47:31;;;;;;;5.80;5.30;;;;;;;;;;4991951;28;20186;-85
2021/05/12 09:50:38;;;;;;;5.70;5.20;;;;;;;;;;4996400;28;20178;-85
2021/05/12 09:54:03;;;;;;;5.80;5.30;;;;;;;;;;4988761;28;20209;-86
2021/05/12 09:57:08;;;;;;;6.37;5.50;;;;;;;;;;4996088;28;20621;-85
2021/05/12 10:00:29;;;;;;;5.90;5.00;;;;;;;;;;4990334;28;20206;-86
2021/05/12 10:03:33;;;;;;;6.60;5.63;;;;;;;;;;4980318;28;20700;-87
2021/05/12 10:06:38;;;;;;;6.90;6.30;;;;;;;;;;4969816;28;20198;-85
2021/05/12 10:09:44;;;;;;;8.33;6.10;;;;;;;;;;4979460;28;20178;-85
2021/05/12 10:12:49;;;;;;;6.10;5.33;;;;;;;;;;4979356;28;20222;-86
2021/05/12 10:15:53;;;;;;;6.63;5.90;;;;;;;;;;4969572;28;20182;-85
2021/05/12 10:18:58;;;;;;;7.33;6.47;;;;;;;;;;4967544;28;20186;-85
2021/05/12 10:22:03;;;;;;;8.73;6.47;;;;;;;;;;4973258;28;20174;-85
2021/05/12 10:25:08;;;;;;;6.87;6.20;;;;;;;;;;4971659;28;20198;-84
2021/05/12 10:28:12;;;;;;;7.00;6.10;;;;;;;;;;4971433;28;20202;-85
2021/05/12 10:31:17;;;;;;;7.47;6.47;;;;;;;;;;4972254;28;20174;-84
2021/05/12 10:34:39;;;;;;;8.60;6.40;;;;;;;;;;4960840;28;20213;-84
2021/05/12 10:37:46;;;;;;;6.77;6.07;;;;;;;;;;4961460;28;20178;-84
2021/05/12 10:40:50;;;;;;;8.80;6.80;;;;;;;;;;4982762;28;20210;-85
2021/05/12 10:43:54;;;;;;;9.73;7.30;;;;;;;;;;4971492;28;20225;-85
2021/05/12 10:47:08;;;;;;;7.67;6.87;;;;;;;;;;4971727;28;20182;-84
2021/05/12 10:50:13;;;;;;;7.53;6.50;;;;;;;;;;4971734;28;20183;-85
2021/05/12 10:53:34;;;;;;;7.60;6.90;;;;;;;;;;4971409;28;20210;-86
2021/05/12 10:56:41;;;;;;;8.03;7.17;;;;;;;;;;4982786;28;20621;-85
2021/05/12 10:59:52;;;;;;;8.10;7.30;;;;;;;;;;4971798;28;20243;-85
2021/05/12 11:03:01;;;;;;;8.97;7.63;;;;;;;;;;4982283;28;20230;-85
2021/05/12 11:06:05;;;;;;;8.20;6.97;;;;;;;;;;4982939;28;20625;-85
2021/05/12 11:09:13;;;;;;;8.00;7.20;;;;;;;;;;4971307;28;20182;-85
2021/05/12 11:12:19;;;;;;;8.53;7.63;;;;;;;;;;4960251;28;20183;-85
2021/05/12 11:15:24;;;;;;;11.57;8.67;;;;;;;;;;4990325;28;20659;-85
2021/05/12 11:18:34;;;;;;;11.87;10.17;;;;;;;;;;4973021;28;20208;-85
2021/05/12 11:21:41;;;;;;;12.20;10.83;;;;;;;;;;4960255;28;20213;-85
2021/05/12 11:24:56;;;;;;;10.23;9.13;;;;;;;;;;4975744;28;20257;-84
2021/05/12 11:31:47;;;;;;;8.90;8.00;;;;;;;;;;4982988;28;20194;-85
2021/05/12 11:34:33;;;;;;;13.20;8.57;;;;;;;;;;4979437;28;20187;-85
2021/05/12 11:37:39;;;;;;;11.40;9.80;;;;;;;;;;5012355;28;20576;-85
2021/05/12 11:41:10;;;;;;;11.93;8.67;;;;;;;;;;4985496;28;20229;-85
2021/05/12 11:44:15;;;;;;;10.20;8.57;;;;;;;;;;4974540;28;20236;-85
2021/05/12 11:47:29;;;;;;;9.17;8.20;;;;;;;;;;4989968;28;20204;-85
2021/05/12 11:50:36;;;;;;;10.63;9.23;;;;;;;;;;4966969;28;20178;-86
2021/05/12 11:53:41;;;;;;;10.27;8.97;;;;;;;;;;4990956;28;20241;-86
2021/05/12 11:56:47;;;;;;;11.97;9.87;;;;;;;;;;4986853;28;20198;-86
2021/05/12 11:59:53;;;;;;;12.37;10.80;;;;;;;;;;4982468;28;20209;-86
2021/05/12 12:02:59;;;;;;;13.77;10.30;;;;;;;;;;5003639;28;20236;-85
2021/05/12 12:06:05;;;;;;;11.43;10.23;;;;;;;;;;4988194;28;20201;-85
2021/05/12 12:09:14;;;;;;;10.57;9.30;;;;;;;;;;4983604;28;20553;-85
2021/05/12 12:12:18;;;;;;;10.13;9.13;;;;;;;;;;4974008;28;20226;-85
2021/05/12 12:15:22;;;;;;;13.90;9.60;;;;;;;;;;4974027;28;20557;-85
2021/05/12 12:18:38;;;;;;;10.03;9.03;;;;;;;;;;4963080;28;20572;-85
2021/05/12 12:21:48;;;;;;;11.07;9.83;;;;;;;;;;4967482;28;20214;-85
2021/05/12 12:24:53;;;;;;;9.77;8.80;;;;;;;;;;4980910;28;20189;-85
2021/05/12 12:27:59;;;;;;;10.30;9.20;;;;;;;;;;4973601;28;20197;-85
2021/05/12 12:31:03;;;;;;;11.03;9.50;;;;;;;;;;4974069;28;20553;-85
2021/05/12 12:34:19;;;;;;;10.63;8.83;;;;;;;;;;4974014;28;20224;-85
2021/05/12 12:37:28;;;;;;;9.33;8.50;;;;;;;;;;4984767;28;20209;-85
2021/05/12 12:40:32;;;;;;;10.40;8.43;;;;;;;;;;4984488;28;20558;-85
2021/05/12 12:43:38;;;;;;;10.30;8.60;;;;;;;;;;4984750;28;20249;-85
2021/05/12 12:46:42;;;;;;;11.10;8.23;;;;;;;;;;4974067;28;20661;-85
2021/05/12 12:50:02;;;;;;;9.53;8.37;;;;;;;;;;4962663;28;20533;-85
2021/05/12 12:53:08;;;;;;;9.63;7.90;;;;;;;;;;4974273;28;20226;-85
2021/05/12 12:56:12;;;;;;;9.97;8.97;;;;;;;;;;4969507;28;20202;-85
2021/05/12 12:59:18;;;;;;;9.00;8.10;;;;;;;;;;4991929;28;20189;-85
2021/05/12 13:02:22;;;;;;;9.60;8.13;;;;;;;;;;4978158;28;20213;-86
2021/05/12 13:05:33;;;;;;;9.07;8.17;;;;;;;;;;4970772;28;20185;-86
2021/05/12 13:08:39;;;;;;;11.60;9.07;;;;;;;;;;4979608;28;20186;-86
2021/05/12 13:11:54;;;;;;;9.50;8.13;;;;;;;;;;4972483;28;20201;-86
2021/05/12 13:14:58;;;;;;;11.13;8.70;;;;;;;;;;4986593;28;20197;-86
2021/05/12 13:18:07;;;;;;;11.50;9.80;;;;;;;;;;4990430;28;20197;-86
2021/05/12 13:21:17;;;;;;;10.83;8.97;;;;;;;;;;4992930;28;20221;-85
2021/05/12 13:24:26;;;;;;;9.67;8.53;;;;;;;;;;4983072;28;20230;-84
2021/05/12 13:27:30;;;;;;;14.10;12.37;;;;;;;;;;4991685;28;20193;-82
2021/05/12 13:30:35;;;;;;;10.30;9.30;;;;;;;;;;5002868;28;20695;-83
2021/05/12 13:33:43;;;;;;;9.83;8.80;;;;;;;;;;4992982;28;20224;-81
2021/05/12 13:36:52;;;;;;;11.17;9.47;;;;;;;;;;5002440;28;20194;-81
2021/05/12 13:39:56;;;;;;;10.17;9.10;;;;;;;;;;4961100;28;20218;-81
2021/05/12 13:43:00;;;;;;;9.93;8.83;;;;;;;;;;4985531;28;20226;-80
2021/05/12 13:46:05;;;;;;;11.53;9.37;;;;;;;;;;4995855;28;20186;-81
2021/05/12 13:49:09;;;;;;;9.93;8.73;;;;;;;;;;4991477;28;20184;-81
2021/05/12 13:52:14;;;;;;;12.07;9.23;;;;;;;;;;4979328;28;20178;-81
2021/05/12 14:02:19;;;;;;;9.83;8.73;;;;;;;;;;5000731;28;20217;-81
2021/05/12 14:05:26;;;;;;;10.20;8.60;;;;;;;;;;5002436;28;20186;-81
2021/05/12 14:08:30;;;;;;;12.37;9.30;;;;;;;;;;5002655;28;20185;-81
2021/05/12 14:11:41;;;;;;;9.13;8.23;;;;;;;;;;4991093;28;20181;-80
2021/05/12 14:15:03;;;;;;;10.87;9.70;;;;;;;;;;4984065;28;20197;-80
2021/05/12 14:18:10;;;;;;;11.10;10.00;;;;;;;;;;4969811;28;20189;-80
2021/05/12 14:21:15;;;;;;;11.10;9.70;;;;;;;;;;4992002;28;20224;-81
2021/05/12 14:24:37;;;;;;;12.07;10.20;;;;;;;;;;4980487;28;21006;-80
2021/05/12 14:27:41;;;;;;;11.93;9.07;;;;;;;;;;4981222;28;20204;-82
2021/05/12 14:30:47;;;;;;;11.23;9.53;;;;;;;;;;4992172;28;20217;-82
2021/05/12 14:33:51;;;;;;;11.17;9.97;;;;;;;;;;4993892;28;20222;-82
2021/05/12 14:36:56;;;;;;;10.87;9.73;;;;;;;;;;4991986;28;20193;-81
2021/05/12 14:40:00;;;;;;;11.83;10.40;;;;;;;;;;4981313;28;20185;-81
2021/05/12 14:43:05;;;;;;;13.53;11.10;;;;;;;;;;4980189;28;20229;-81
2021/05/12 14:46:09;;;;;;;11.93;10.60;;;;;;;;;;4994374;28;20185;-81
2021/05/12 14:49:14;;;;;;;13.07;11.40;;;;;;;;;;4999764;28;20549;-80
2021/05/12 14:52:32;;;;;;;15.33;11.27;;;;;;;;;;4980748;28;20225;-80
2021/05/12 14:56:10;;;;;;;14.10;12.50;;;;;;;;;;4958276;28;20189;-80
2021/05/12 14:59:31;;;;;;;14.23;12.40;;;;;;;;;;4993160;28;20185;-81
2021/05/12 15:09:03;;;;;;;16.47;13.00;;;;;;;;;;4970129;28;20178;-81
2021/05/12 15:12:08;;;;;;;16.80;13.70;;;;;;;;;;4986619;28;20196;-80
2021/05/12 15:15:12;;;;;;;18.07;14.67;;;;;;;;;;4979033;28;20184;-81
2021/05/12 15:18:17;;;;;;;22.63;14.53;;;;;;;;;;4984790;28;20201;-81
2021/05/12 15:21:21;;;;;;;14.13;12.63;;;;;;;;;;4996350;28;20228;-81
2021/05/12 15:24:25;;;;;;;16.43;13.40;;;;;;;;;;5000170;28;20232;-81
2021/05/12 15:27:29;;;;;;;16.17;13.30;;;;;;;;;;5014640;28;20204;-81
2021/05/12 15:30:35;;;;;;;15.47;12.60;;;;;;;;;;5005057;28;20184;-81
2021/05/12 15:33:40;;;;;;;15.20;12.90;;;;;;;;;;4984874;28;20715;-81
2021/05/12 15:36:44;;;;;;;14.70;12.00;;;;;;;;;;4980929;28;20197;-81
2021/05/12 15:39:48;;;;;;;12.83;11.40;;;;;;;;;;4992098;28;20185;-81
2021/05/12 15:42:52;;;;;;;15.33;12.00;;;;;;;;;;5003000;28;20228;-81
2021/05/12 15:45:57;;;;;;;15.90;11.57;;;;;;;;;;5003047;28;20900;-83
2021/05/12 15:49:02;;;;;;;12.57;10.93;;;;;;;;;;4978322;28;20201;-80
2021/05/12 15:52:06;;;;;;;14.67;11.63;;;;;;;;;;4983328;28;20186;-81
2021/05/12 15:55:11;;;;;;;13.73;10.90;;;;;;;;;;4984216;28;20193;-81
2021/05/12 15:58:15;;;;;;;15.47;11.13;;;;;;;;;;4983750;28;20205;-81
2021/05/12 16:01:18;;;;;;;14.97;11.37;;;;;;;;;;4972137;28;20209;-81
2021/05/12 16:04:23;;;;;;;15.03;11.53;;;;;;;;;;4984323;28;20220;-81
2021/05/12 16:07:28;;;;;;;14.50;11.90;;;;;;;;;;4972902;28;20185;-82
2021/05/12 16:10:35;;;;;;;13.30;11.60;;;;;;;;;;4984026;28;20189;-82
2021/05/12 16:13:39;;;;;;;18.70;11.63;;;;;;;;;;4973199;28;20220;-82
2021/05/12 16:16:57;;;;;;;19.67;11.47;;;;;;;;;;4986252;28;20212;-82
2021/05/12 16:20:03;;;;;;;19.27;13.43;;;;;;;;;;4987245;28;20201;-82
2021/05/12 16:23:07;;;;;;;17.03;12.73;;;;;;;;;;4986061;28;20241;-86
2021/05/12 16:26:12;;;;;;;21.07;14.80;;;;;;;;;;4996696;23;20245;-83
2021/05/12 16:29:17;;;;;;;17.50;15.60;;;;;;;;;;4988637;28;20205;-84
2021/05/12 16:32:22;;;;;;;24.73;18.43;;;;;;;;;;4988819;28;20221;-84
2021/05/12 16:35:26;;;;;;;19.27;15.67;;;;;;;;;;4989120;28;20190;-85
2021/05/12 16:38:30;;;;;;;26.87;19.33;;;;;;;;;;4967291;28;20545;-83
2021/05/12 16:41:35;;;;;;;15.10;12.60;;;;;;;;;;4988643;28;20214;-83
2021/05/12 16:44:39;;;;;;;29.17;20.77;;;;;;;;;;4978298;28;20197;-83
2021/05/12 16:47:44;;;;;;;23.53;18.00;;;;;;;;;;4988950;28;20265;-85
2021/05/12 16:50:50;;;;;;;23.40;16.07;;;;;;;;;;4944213;28;20202;-84
2021/05/12 16:53:59;;;;;;;26.63;18.00;;;;;;;;;;4956401;28;20190;-84
2021/05/12 16:57:04;;;;;;;27.67;18.60;;;;;;;;;;4946896;28;20559;-84
2021/05/12 17:00:10;;;;;;;21.00;14.37;;;;;;;;;;4971071;28;20204;-85
2021/05/12 17:03:14;;;;;;;23.27;16.63;;;;;;;;;;4985766;28;20217;-83
2021/05/12 17:06:19;;;;;;;28.07;19.40;;;;;;;;;;4987724;28;20228;-83
2021/05/12 17:09:30;;;;;;;24.90;18.53;;;;;;;;;;4968239;28;20197;-84
2021/05/12 17:12:36;;;;;;;22.80;15.70;;;;;;;;;;4978920;28;20206;-83
2021/05/12 17:15:41;;;;;;;18.93;14.13;;;;;;;;;;4958352;28;20229;-84
2021/05/12 17:18:46;;;;;;;19.30;15.00;;;;;;;;;;4947308;28;20182;-83
2021/05/12 17:21:50;;;;;;;19.50;13.13;;;;;;;;;;4958588;28;20217;-84
2021/05/12 17:24:54;;;;;;;18.63;13.37;;;;;;;;;;4970246;28;20201;-83
2021/05/12 17:28:03;;;;;;;17.73;13.27;;;;;;;;;;4981735;28;20182;-84
2021/05/12 17:31:07;;;;;;;18.67;11.40;;;;;;;;;;4967273;28;20201;-84
2021/05/12 17:34:12;;;;;;;27.17;18.10;;;;;;;;;;4979264;28;20202;-82
2021/05/12 17:37:16;;;;;;;21.77;15.23;;;;;;;;;;4980205;28;20221;-82
2021/05/12 17:40:21;;;;;;;18.57;13.90;;;;;;;;;;4975417;28;20205;-83
2021/05/12 17:43:26;;;;;;;15.33;11.23;;;;;;;;;;4971727;28;20224;-82
2021/05/12 17:46:30;;;;;;;13.90;10.87;;;;;;;;;;4963135;28;20229;-84
2021/05/12 17:49:34;;;;;;;12.87;10.30;;;;;;;;;;4968518;28;20420;-84
2021/05/12 17:52:42;;;;;;;14.93;9.97;;;;;;;;;;4973040;28;20202;-84
2021/05/12 17:55:47;;;;;;;12.20;10.10;;;;;;;;;;4965755;28;20681;-85
2021/05/12 17:58:51;;;;;;;17.07;10.67;;;;;;;;;;4971097;28;20192;-85
2021/05/12 18:01:55;;;;;;;12.80;9.90;;;;;;;;;;4945464;28;20226;-82
2021/05/12 18:05:06;;;;;;;11.13;9.10;;;;;;;;;;4962010;28;20191;-82
2021/05/12 18:08:10;;;;;;;18.30;12.00;;;;;;;;;;4965734;28;20206;-81
2021/05/12 18:17:44;;;;;;;11.90;8.63;;;;;;;;;;4948993;28;20194;-85
2021/05/12 18:20:49;;;;;;;10.03;8.60;;;;;;;;;;4955108;28;20209;-84
2021/05/12 18:23:53;;;;;;;9.40;7.57;;;;;;;;;;4969797;28;20710;-87
2021/05/12 18:26:57;;;;;;;10.23;7.80;;;;;;;;;;4968727;28;20229;-86
2021/05/12 18:30:02;;;;;;;9.70;7.33;;;;;;;;;;4961985;28;20589;-84
2021/05/12 18:33:07;;;;;;;9.67;7.07;;;;;;;;;;4962269;28;20175;-85
2021/05/12 18:36:15;;;;;;;9.80;7.27;;;;;;;;;;4958729;28;20684;-85
2021/05/12 18:39:31;;;;;;;10.73;7.63;;;;;;;;;;4958482;28;20178;-85
2021/05/12 18:42:38;;;;;;;10.07;7.10;;;;;;;;;;4940423;28;20227;-87
2021/05/12 18:45:43;;;;;;;10.10;7.57;;;;;;;;;;4963136;28;20225;-86
2021/05/12 18:48:48;;;;;;;8.70;7.50;;;;;;;;;;4939050;28;20199;-86
2021/05/12 18:51:52;;;;;;;11.07;7.50;;;;;;;;;;4952095;28;20717;-86
2021/05/12 18:54:56;;;;;;;11.10;7.67;;;;;;;;;;4949770;28;20186;-85